sensor_id;sensor_type;location;lat;lon;timestamp;pressure;altitude;pressure_sealevel;temperature;humidity
32733;BME280;11867;51.198;11.966;2023-03-22T00:00:25;100192.31;;;10.89;91.50
32733;BME280;11867;51.198;11.966;2023-03-22T00:01:29;100199.41;;;10.90;90.97
32733;BME280;11867;51.198;11.966;2023-03-22T00:02:31;100185.78;;;10.85;90.85
32733;BME280;11867;51.198;11.966;2023-03-22T00:03:33;100190.94;;;10.92;90.51
32733;BME280;11867;51.198;11.966;2023-03-22T00:04:36;100198.28;;;10.91;90.07
32733;BME280;11867;51.198;11.966;2023-03-22T00:05:38;100202.84;;;10.72;90.62
32733;BME280;11867;51.198;11.966;2023-03-22T00:06:40;100205.22;;;10.78;90.71
32733;BME280;11867;51.198;11.966;2023-03-22T00:07:43;100200.56;;;10.79;90.50
32733;BME280;11867;51.198;11.966;2023-03-22T00:08:47;100201.50;;;10.64;90.47
32733;BME280;11867;51.198;11.966;2023-03-22T00:09:50;100204.75;;;10.71;90.83
32733;BME280;11867;51.198;11.966;2023-03-22T00:10:53;100201.41;;;10.79;90.44
32733;BME280;11867;51.198;11.966;2023-03-22T00:11:56;100195.19;;;10.74;89.93
32733;BME280;11867;51.198;11.966;2023-03-22T00:12:58;100202.56;;;10.68;90.36
32733;BME280;11867;51.198;11.966;2023-03-22T00:14:00;100191.63;;;10.39;91.75
32733;BME280;11867;51.198;11.966;2023-03-22T00:15:03;100196.84;;;10.30;92.22
32733;BME280;11867;51.198;11.966;2023-03-22T00:16:07;100193.75;;;9.97;93.59
32733;BME280;11867;51.198;11.966;2023-03-22T00:17:08;100190.09;;;10.17;93.96
32733;BME280;11867;51.198;11.966;2023-03-22T00:18:11;100184.78;;;10.41;92.80
32733;BME280;11867;51.198;11.966;2023-03-22T00:19:13;100192.88;;;10.52;92.27
32733;BME280;11867;51.198;11.966;2023-03-22T00:20:16;100181.97;;;10.52;91.75
32733;BME280;11867;51.198;11.966;2023-03-22T00:21:21;100191.13;;;10.26;92.34
32733;BME280;11867;51.198;11.966;2023-03-22T00:22:24;100189.03;;;10.08;93.62
32733;BME280;11867;51.198;11.966;2023-03-22T00:23:26;100189.63;;;10.00;93.84
32733;BME280;11867;51.198;11.966;2023-03-22T00:24:29;100186.41;;;9.93;93.77
32733;BME280;11867;51.198;11.966;2023-03-22T00:25:31;100178.78;;;9.95;94.14
32733;BME280;11867;51.198;11.966;2023-03-22T00:26:35;100174.38;;;9.39;95.94
32733;BME280;11867;51.198;11.966;2023-03-22T00:27:37;100179.63;;;8.99;99.47
32733;BME280;11867;51.198;11.966;2023-03-22T00:28:40;100163.88;;;8.55;100.00
32733;BME280;11867;51.198;11.966;2023-03-22T00:29:41;100171.50;;;8.48;100.00
32733;BME280;11867;51.198;11.966;2023-03-22T00:30:50;100170.13;;;8.76;100.00
32733;BME280;11867;51.198;11.966;2023-03-22T00:31:51;100167.94;;;9.04;100.00
32733;BME280;11867;51.198;11.966;2023-03-22T00:32:56;100168.19;;;9.07;100.00
32733;BME280;11867;51.198;11.966;2023-03-22T00:33:57;100174.09;;;9.30;100.00
32733;BME280;11867;51.198;11.966;2023-03-22T00:35:00;100175.47;;;9.43;99.60
32733;BME280;11867;51.198;11.966;2023-03-22T00:36:03;100173.63;;;9.13;100.00
32733;BME280;11867;51.198;11.966;2023-03-22T00:37:07;100163.31;;;8.99;100.00
32733;BME280;11867;51.198;11.966;2023-03-22T00:38:08;100174.19;;;9.09;100.00
32733;BME280;11867;51.198;11.966;2023-03-22T00:39:14;100169.22;;;9.37;100.00
32733;BME280;11867;51.198;11.966;2023-03-22T00:40:16;100177.56;;;9.56;98.48
32733;BME280;11867;51.198;11.966;2023-03-22T00:41:21;100174.00;;;9.61;97.75
32733;BME280;11867;51.198;11.966;2023-03-22T00:42:25;100171.81;;;9.63;97.00
32733;BME280;11867;51.198;11.966;2023-03-22T00:43:26;100167.44;;;9.72;96.76
32733;BME280;11867;51.198;11.966;2023-03-22T00:44:29;100168.47;;;9.81;95.71
32733;BME280;11867;51.198;11.966;2023-03-22T00:45:31;100168.63;;;9.40;96.29
32733;BME280;11867;51.198;11.966;2023-03-22T00:46:36;100172.78;;;9.17;97.39
32733;BME280;11867;51.198;11.966;2023-03-22T00:47:38;100173.88;;;9.26;98.17
32733;BME280;11867;51.198;11.966;2023-03-22T00:48:41;100169.22;;;9.37;97.68
32733;BME280;11867;51.198;11.966;2023-03-22T00:49:42;100158.25;;;9.53;96.75
32733;BME280;11867;51.198;11.966;2023-03-22T00:50:45;100166.34;;;9.73;95.65
32733;BME280;11867;51.198;11.966;2023-03-22T00:51:46;100161.72;;;9.74;94.80
32733;BME280;11867;51.198;11.966;2023-03-22T00:52:49;100165.22;;;9.84;94.03
32733;BME280;11867;51.198;11.966;2023-03-22T00:53:50;100151.59;;;9.84;93.43
32733;BME280;11867;51.198;11.966;2023-03-22T00:54:54;100155.06;;;9.95;93.00
32733;BME280;11867;51.198;11.966;2023-03-22T00:55:56;100150.97;;;10.03;92.34
32733;BME280;11867;51.198;11.966;2023-03-22T00:56:59;100150.69;;;9.99;92.16
32733;BME280;11867;51.198;11.966;2023-03-22T00:58:02;100156.09;;;10.04;92.13
32733;BME280;11867;51.198;11.966;2023-03-22T00:59:04;100153.63;;;10.13;91.99
32733;BME280;11867;51.198;11.966;2023-03-22T01:00:07;100156.09;;;10.09;92.31
32733;BME280;11867;51.198;11.966;2023-03-22T01:01:13;100160.19;;;10.07;92.09
32733;BME280;11867;51.198;11.966;2023-03-22T01:02:15;100161.78;;;10.13;91.86
32733;BME280;11867;51.198;11.966;2023-03-22T01:03:18;100154.16;;;10.15;91.59
32733;BME280;11867;51.198;11.966;2023-03-22T01:04:22;100160.66;;;10.19;91.53
32733;BME280;11867;51.198;11.966;2023-03-22T01:05:26;100164.00;;;10.06;92.11
32733;BME280;11867;51.198;11.966;2023-03-22T01:06:28;100158.50;;;10.16;91.55
32733;BME280;11867;51.198;11.966;2023-03-22T01:07:31;100159.63;;;10.10;91.67
32733;BME280;11867;51.198;11.966;2023-03-22T01:08:33;100156.28;;;10.18;91.40
32733;BME280;11867;51.198;11.966;2023-03-22T01:09:39;100160.41;;;10.16;91.42
32733;BME280;11867;51.198;11.966;2023-03-22T01:10:42;100153.56;;;10.18;90.89
32733;BME280;11867;51.198;11.966;2023-03-22T01:11:45;100155.00;;;10.05;91.20
32733;BME280;11867;51.198;11.966;2023-03-22T01:12:47;100157.47;;;10.07;91.45
32733;BME280;11867;51.198;11.966;2023-03-22T01:13:51;100159.06;;;10.13;90.84
32733;BME280;11867;51.198;11.966;2023-03-22T01:14:53;100160.53;;;9.90;91.33
32733;BME280;11867;51.198;11.966;2023-03-22T01:15:55;100155.94;;;9.90;91.89
32733;BME280;11867;51.198;11.966;2023-03-22T01:16:57;100158.38;;;9.87;92.04
32733;BME280;11867;51.198;11.966;2023-03-22T01:17:59;100148.84;;;9.89;92.13
32733;BME280;11867;51.198;11.966;2023-03-22T01:19:02;100146.91;;;9.90;92.06
32733;BME280;11867;51.198;11.966;2023-03-22T01:20:05;100152.19;;;9.76;92.61
32733;BME280;11867;51.198;11.966;2023-03-22T01:21:09;100149.78;;;9.64;92.70
32733;BME280;11867;51.198;11.966;2023-03-22T01:22:11;100148.47;;;9.52;92.86
32733;BME280;11867;51.198;11.966;2023-03-22T01:23:13;100147.97;;;9.34;94.28
32733;BME280;11867;51.198;11.966;2023-03-22T01:24:15;100147.41;;;9.42;94.41
32733;BME280;11867;51.198;11.966;2023-03-22T01:25:18;100147.91;;;9.55;93.68
32733;BME280;11867;51.198;11.966;2023-03-22T01:26:19;100150.88;;;9.63;93.00
32733;BME280;11867;51.198;11.966;2023-03-22T01:27:22;100147.06;;;9.64;92.69
32733;BME280;11867;51.198;11.966;2023-03-22T01:28:23;100146.75;;;9.71;92.30
32733;BME280;11867;51.198;11.966;2023-03-22T01:29:29;100147.28;;;9.73;92.15
32733;BME280;11867;51.198;11.966;2023-03-22T01:30:31;100146.81;;;9.56;92.61
32733;BME280;11867;51.198;11.966;2023-03-22T01:31:34;100147.97;;;9.39;92.77
32733;BME280;11867;51.198;11.966;2023-03-22T01:32:36;100145.91;;;8.95;95.39
32733;BME280;11867;51.198;11.966;2023-03-22T01:33:41;100145.88;;;9.11;95.48
32733;BME280;11867;51.198;11.966;2023-03-22T01:34:42;100149.13;;;9.13;95.38
32733;BME280;11867;51.198;11.966;2023-03-22T01:35:45;100154.34;;;9.04;95.97
32733;BME280;11867;51.198;11.966;2023-03-22T01:36:48;100139.44;;;8.60;97.91
32733;BME280;11867;51.198;11.966;2023-03-22T01:37:50;100148.13;;;8.52;98.64
32733;BME280;11867;51.198;11.966;2023-03-22T01:38:53;100147.50;;;8.24;99.78
32733;BME280;11867;51.198;11.966;2023-03-22T01:39:55;100143.78;;;8.46;99.44
32733;BME280;11867;51.198;11.966;2023-03-22T01:40:57;100149.72;;;8.27;100.00
32733;BME280;11867;51.198;11.966;2023-03-22T01:42:00;100141.59;;;8.48;99.67
32733;BME280;11867;51.198;11.966;2023-03-22T01:43:05;100150.22;;;8.24;99.39
32733;BME280;11867;51.198;11.966;2023-03-22T01:44:09;100145.63;;;8.20;100.00
32733;BME280;11867;51.198;11.966;2023-03-22T01:45:39;100139.31;;;7.83;100.00
32733;BME280;11867;51.198;11.966;2023-03-22T01:46:42;100140.97;;;8.05;100.00
32733;BME280;11867;51.198;11.966;2023-03-22T01:47:48;100137.72;;;8.08;100.00
32733;BME280;11867;51.198;11.966;2023-03-22T01:48:52;100133.81;;;7.68;100.00
32733;BME280;11867;51.198;11.966;2023-03-22T01:49:55;100135.13;;;7.55;100.00
32733;BME280;11867;51.198;11.966;2023-03-22T01:51:00;100140.59;;;7.71;100.00
32733;BME280;11867;51.198;11.966;2023-03-22T01:52:06;100132.78;;;7.79;100.00
32733;BME280;11867;51.198;11.966;2023-03-22T01:53:11;100133.00;;;7.73;100.00
32733;BME280;11867;51.198;11.966;2023-03-22T01:54:17;100133.31;;;7.71;100.00
32733;BME280;11867;51.198;11.966;2023-03-22T01:55:22;100125.97;;;7.72;100.00
32733;BME280;11867;51.198;11.966;2023-03-22T01:56:29;100123.03;;;7.88;100.00
32733;BME280;11867;51.198;11.966;2023-03-22T01:57:32;100119.28;;;8.25;100.00
32733;BME280;11867;51.198;11.966;2023-03-22T01:58:38;100120.13;;;8.46;98.71
32733;BME280;11867;51.198;11.966;2023-03-22T01:59:40;100126.91;;;8.69;97.07
32733;BME280;11867;51.198;11.966;2023-03-22T02:00:47;100125.00;;;8.85;95.92
32733;BME280;11867;51.198;11.966;2023-03-22T02:01:49;100118.19;;;8.93;95.05
32733;BME280;11867;51.198;11.966;2023-03-22T02:02:52;100115.72;;;9.02;94.18
32733;BME280;11867;51.198;11.966;2023-03-22T02:03:57;100112.72;;;8.98;94.06
32733;BME280;11867;51.198;11.966;2023-03-22T02:05:00;100108.38;;;9.02;93.34
32733;BME280;11867;51.198;11.966;2023-03-22T02:06:04;100112.16;;;9.12;93.15
32733;BME280;11867;51.198;11.966;2023-03-22T02:07:09;100116.75;;;9.21;92.42
32733;BME280;11867;51.198;11.966;2023-03-22T02:08:15;100113.81;;;9.07;92.77
32733;BME280;11867;51.198;11.966;2023-03-22T02:09:19;100108.59;;;9.11;92.54
32733;BME280;11867;51.198;11.966;2023-03-22T02:10:25;100113.78;;;9.18;92.27
32733;BME280;11867;51.198;11.966;2023-03-22T02:11:31;100106.63;;;9.32;91.96
32733;BME280;11867;51.198;11.966;2023-03-22T02:12:41;100108.81;;;9.35;91.46
32733;BME280;11867;51.198;11.966;2023-03-22T02:14:01;100111.59;;;9.15;91.73
32733;BME280;11867;51.198;11.966;2023-03-22T02:15:11;100097.22;;;9.04;92.64
32733;BME280;11867;51.198;11.966;2023-03-22T02:16:25;100100.72;;;9.15;92.32
32733;BME280;11867;51.198;11.966;2023-03-22T02:17:38;100106.16;;;9.15;92.42
32733;BME280;11867;51.198;11.966;2023-03-22T02:18:55;100105.63;;;9.18;92.27
32733;BME280;11867;51.198;11.966;2023-03-22T02:20:25;100104.03;;;9.01;92.85
32733;BME280;11867;51.198;11.966;2023-03-22T02:21:55;100100.47;;;9.01;92.69
32733;BME280;11867;51.198;11.966;2023-03-22T02:23:09;100098.56;;;9.06;92.87
32733;BME280;11867;51.198;11.966;2023-03-22T02:24:50;100098.28;;;9.08;92.44
32733;BME280;11867;51.198;11.966;2023-03-22T02:26:38;100094.22;;;9.00;92.15
32733;BME280;11867;51.198;11.966;2023-03-22T02:28:10;100100.78;;;8.84;92.78
32733;BME280;11867;51.198;11.966;2023-03-22T02:29:22;100090.47;;;8.91;93.05
32733;BME280;11867;51.198;11.966;2023-03-22T02:30:35;100091.00;;;8.88;93.59
32733;BME280;11867;51.198;11.966;2023-03-22T02:31:51;100087.50;;;8.77;93.03
32733;BME280;11867;51.198;11.966;2023-03-22T02:33:21;100090.50;;;8.71;93.72
32733;BME280;11867;51.198;11.966;2023-03-22T02:34:43;100086.69;;;8.72;94.11
32733;BME280;11867;51.198;11.966;2023-03-22T02:39:13;100087.75;;;8.86;93.47
32733;BME280;11867;51.198;11.966;2023-03-22T02:40:20;100094.03;;;8.71;93.82
32733;BME280;11867;51.198;11.966;2023-03-22T02:41:33;100088.03;;;8.74;93.93
32733;BME280;11867;51.198;11.966;2023-03-22T02:42:48;100090.75;;;8.74;93.82
32733;BME280;11867;51.198;11.966;2023-03-22T02:44:03;100091.31;;;8.61;94.58
32733;BME280;11867;51.198;11.966;2023-03-22T02:45:10;100094.31;;;8.75;94.34
32733;BME280;11867;51.198;11.966;2023-03-22T02:46:21;100084.50;;;8.79;93.78
32733;BME280;11867;51.198;11.966;2023-03-22T02:47:31;100088.81;;;8.90;93.49
32733;BME280;11867;51.198;11.966;2023-03-22T02:48:39;100099.13;;;8.98;92.93
32733;BME280;11867;51.198;11.966;2023-03-22T02:49:45;100094.50;;;8.99;92.97
32733;BME280;11867;51.198;11.966;2023-03-22T02:50:54;100098.84;;;9.10;92.42
32733;BME280;11867;51.198;11.966;2023-03-22T02:52:00;100108.59;;;9.16;91.86
32733;BME280;11867;51.198;11.966;2023-03-22T02:53:06;100093.97;;;9.02;92.05
32733;BME280;11867;51.198;11.966;2023-03-22T02:54:12;100096.16;;;9.00;92.20
32733;BME280;11867;51.198;11.966;2023-03-22T02:55:23;100099.13;;;8.98;92.45
32733;BME280;11867;51.198;11.966;2023-03-22T02:56:30;100095.00;;;9.11;92.07
32733;BME280;11867;51.198;11.966;2023-03-22T02:57:39;100102.38;;;9.16;92.15
32733;BME280;11867;51.198;11.966;2023-03-22T02:58:46;100096.69;;;9.02;91.72
32733;BME280;11867;51.198;11.966;2023-03-22T02:59:52;100096.41;;;8.98;92.43
32733;BME280;11867;51.198;11.966;2023-03-22T03:00:57;100093.69;;;8.98;91.78
32733;BME280;11867;51.198;11.966;2023-03-22T03:02:03;100102.38;;;9.00;92.22
32733;BME280;11867;51.198;11.966;2023-03-22T03:03:07;100101.03;;;8.98;92.05
32733;BME280;11867;51.198;11.966;2023-03-22T03:04:15;100095.09;;;8.85;92.36
32733;BME280;11867;51.198;11.966;2023-03-22T03:05:19;100090.16;;;8.93;92.78
32733;BME280;11867;51.198;11.966;2023-03-22T03:06:23;100093.97;;;8.97;92.05
32733;BME280;11867;51.198;11.966;2023-03-22T03:07:28;100099.16;;;8.93;92.46
32733;BME280;11867;51.198;11.966;2023-03-22T03:08:32;100096.94;;;9.05;91.93
32733;BME280;11867;51.198;11.966;2023-03-22T03:09:36;100099.09;;;9.14;91.78
32733;BME280;11867;51.198;11.966;2023-03-22T03:10:42;100085.25;;;9.10;91.21
32733;BME280;11867;51.198;11.966;2023-03-22T03:11:45;100101.25;;;9.17;91.03
32733;BME280;11867;51.198;11.966;2023-03-22T03:12:48;100101.53;;;9.15;91.11
32733;BME280;11867;51.198;11.966;2023-03-22T03:13:50;100098.78;;;9.31;90.95
32733;BME280;11867;51.198;11.966;2023-03-22T03:14:53;100085.75;;;9.22;90.50
32733;BME280;11867;51.198;11.966;2023-03-22T03:15:56;100090.13;;;9.08;91.20
32733;BME280;11867;51.198;11.966;2023-03-22T03:17:08;100090.44;;;9.01;91.52
32733;BME280;11867;51.198;11.966;2023-03-22T03:18:21;100096.69;;;9.02;91.62
32733;BME280;11867;51.198;11.966;2023-03-22T03:19:33;100088.75;;;9.16;91.25
32733;BME280;11867;51.198;11.966;2023-03-22T03:20:45;100094.78;;;9.07;91.25
32733;BME280;11867;51.198;11.966;2023-03-22T03:21:56;100100.22;;;8.92;91.52
32733;BME280;11867;51.198;11.966;2023-03-22T03:23:13;100102.19;;;8.71;92.48
32733;BME280;11867;51.198;11.966;2023-03-22T03:24:21;100099.16;;;8.78;92.69
32733;BME280;11867;51.198;11.966;2023-03-22T03:25:32;100103.00;;;8.51;94.22
32733;BME280;11867;51.198;11.966;2023-03-22T03:26:38;100100.59;;;8.50;94.82
32733;BME280;11867;51.198;11.966;2023-03-22T03:27:47;100102.47;;;8.44;94.80
32733;BME280;11867;51.198;11.966;2023-03-22T03:28:54;100103.81;;;8.46;94.56
32733;BME280;11867;51.198;11.966;2023-03-22T03:30:01;100101.94;;;8.52;94.85
32733;BME280;11867;51.198;11.966;2023-03-22T03:31:13;100103.81;;;8.57;94.49
32733;BME280;11867;51.198;11.966;2023-03-22T03:32:20;100100.53;;;8.70;94.14
32733;BME280;11867;51.198;11.966;2023-03-22T03:33:27;100094.03;;;8.71;93.94
32733;BME280;11867;51.198;11.966;2023-03-22T03:34:38;100105.72;;;8.77;93.67
32733;BME280;11867;51.198;11.966;2023-03-22T03:35:45;100096.47;;;8.83;93.65
32733;BME280;11867;51.198;11.966;2023-03-22T03:36:55;100092.84;;;9.03;92.85
32733;BME280;11867;51.198;11.966;2023-03-22T03:38:01;100098.88;;;9.00;93.02
32733;BME280;11867;51.198;11.966;2023-03-22T03:39:11;100093.94;;;9.07;92.38
32733;BME280;11867;51.198;11.966;2023-03-22T03:40:18;100087.66;;;9.17;91.93
32733;BME280;11867;51.198;11.966;2023-03-22T03:41:24;100091.72;;;9.19;91.71
32733;BME280;11867;51.198;11.966;2023-03-22T03:42:28;100089.25;;;9.23;91.61
32733;BME280;11867;51.198;11.966;2023-03-22T03:43:33;100095.22;;;9.30;91.49
32733;BME280;11867;51.198;11.966;2023-03-22T03:44:35;100091.38;;;9.41;90.88
32733;BME280;11867;51.198;11.966;2023-03-22T03:45:39;100091.44;;;9.21;90.98
32733;BME280;11867;51.198;11.966;2023-03-22T03:46:41;100095.25;;;9.20;91.45
32733;BME280;11867;51.198;11.966;2023-03-22T03:47:46;100092.56;;;9.15;91.25
32733;BME280;11867;51.198;11.966;2023-03-22T03:48:49;100093.09;;;9.17;91.67
32733;BME280;11867;51.198;11.966;2023-03-22T03:49:53;100098.03;;;9.09;91.94
32733;BME280;11867;51.198;11.966;2023-03-22T03:50:55;100101.00;;;9.18;91.67
32733;BME280;11867;51.198;11.966;2023-03-22T03:51:59;100098.53;;;9.17;91.60
32733;BME280;11867;51.198;11.966;2023-03-22T03:53:01;100088.81;;;8.90;92.12
32733;BME280;11867;51.198;11.966;2023-03-22T03:54:03;100086.63;;;9.02;92.35
32733;BME280;11867;51.198;11.966;2023-03-22T03:55:06;100091.44;;;9.21;91.73
32733;BME280;11867;51.198;11.966;2023-03-22T03:56:09;100094.16;;;9.21;91.24
32733;BME280;11867;51.198;11.966;2023-03-22T03:57:12;100087.88;;;9.31;90.81
32733;BME280;11867;51.198;11.966;2023-03-22T03:58:17;100083.25;;;9.26;90.59
32733;BME280;11867;51.198;11.966;2023-03-22T03:59:19;100094.97;;;9.26;90.82
32733;BME280;11867;51.198;11.966;2023-03-22T04:00:22;100084.63;;;9.28;90.46
32733;BME280;11867;51.198;11.966;2023-03-22T04:01:23;100101.97;;;9.43;90.00
32733;BME280;11867;51.198;11.966;2023-03-22T04:02:26;100095.22;;;9.30;90.55
32733;BME280;11867;51.198;11.966;2023-03-22T04:03:28;100092.72;;;9.44;90.56
32733;BME280;11867;51.198;11.966;2023-03-22T04:04:31;100093.78;;;9.53;89.74
32733;BME280;11867;51.198;11.966;2023-03-22T04:05:35;100089.94;;;9.59;89.24
32733;BME280;11867;51.198;11.966;2023-03-22T04:06:37;100093.47;;;9.55;89.51
32733;BME280;11867;51.198;11.966;2023-03-22T04:07:39;100094.31;;;9.55;89.35
32733;BME280;11867;51.198;11.966;2023-03-22T04:08:42;100080.97;;;9.54;89.25
32733;BME280;11867;51.198;11.966;2023-03-22T04:09:45;100071.69;;;9.60;88.88
32733;BME280;11867;51.198;11.966;2023-03-22T04:10:48;100075.28;;;9.50;88.66
32733;BME280;11867;51.198;11.966;2023-03-22T04:11:51;100076.22;;;9.20;89.78
32733;BME280;11867;51.198;11.966;2023-03-22T04:12:54;100083.25;;;9.31;90.39
32733;BME280;11867;51.198;11.966;2023-03-22T04:13:56;100084.31;;;9.30;90.18
32733;BME280;11867;51.198;11.966;2023-03-22T04:14:58;100084.00;;;9.47;89.84
32733;BME280;11867;51.198;11.966;2023-03-22T04:16:00;100081.50;;;9.50;89.45
32733;BME280;11867;51.198;11.966;2023-03-22T04:17:03;100081.50;;;9.50;89.63
32733;BME280;11867;51.198;11.966;2023-03-22T04:18:04;100076.03;;;9.61;89.03
32733;BME280;11867;51.198;11.966;2023-03-22T04:19:07;100079.03;;;8.94;91.09
32733;BME280;11867;51.198;11.966;2023-03-22T04:20:10;100074.97;;;8.76;92.95
32733;BME280;11867;51.198;11.966;2023-03-22T04:21:14;100071.72;;;8.64;93.66
32733;BME280;11867;51.198;11.966;2023-03-22T04:22:16;100075.84;;;8.56;94.46
32733;BME280;11867;51.198;11.966;2023-03-22T04:23:19;100074.16;;;8.76;94.34
32733;BME280;11867;51.198;11.966;2023-03-22T04:24:23;100071.13;;;8.93;93.48
32733;BME280;11867;51.198;11.966;2023-03-22T04:25:26;100065.47;;;8.79;93.75
32733;BME280;11867;51.198;11.966;2023-03-22T04:26:30;100065.50;;;8.63;93.96
32733;BME280;11867;51.198;11.966;2023-03-22T04:27:33;100066.56;;;8.78;93.77
32733;BME280;11867;51.198;11.966;2023-03-22T04:28:36;100062.16;;;8.97;93.32
32733;BME280;11867;51.198;11.966;2023-03-22T04:29:39;100061.63;;;8.90;93.27
32733;BME280;11867;51.198;11.966;2023-03-22T04:30:40;100057.28;;;8.99;93.00
32733;BME280;11867;51.198;11.966;2023-03-22T04:31:46;100065.63;;;9.18;92.14
32733;BME280;11867;51.198;11.966;2023-03-22T04:32:48;100061.25;;;9.22;92.02
32733;BME280;11867;51.198;11.966;2023-03-22T04:33:51;100060.19;;;9.13;92.24
32733;BME280;11867;51.198;11.966;2023-03-22T04:34:57;100056.16;;;9.05;92.32
32733;BME280;11867;51.198;11.966;2023-03-22T04:36:00;100064.16;;;8.61;93.74
32733;BME280;11867;51.198;11.966;2023-03-22T04:37:04;100057.03;;;8.80;93.94
32733;BME280;11867;51.198;11.966;2023-03-22T04:38:08;100061.63;;;8.90;93.47
32733;BME280;11867;51.198;11.966;2023-03-22T04:39:11;100057.50;;;9.03;92.66
32733;BME280;11867;51.198;11.966;2023-03-22T04:40:12;100050.72;;;9.00;92.63
32733;BME280;11867;51.198;11.966;2023-03-22T04:41:17;100052.41;;;8.91;93.08
32733;BME280;11867;51.198;11.966;2023-03-22T04:42:19;100050.81;;;8.69;93.85
32733;BME280;11867;51.198;11.966;2023-03-22T04:43:21;100055.16;;;8.81;93.85
32733;BME280;11867;51.198;11.966;2023-03-22T04:44:25;100058.09;;;8.84;93.60
32733;BME280;11867;51.198;11.966;2023-03-22T04:45:27;100056.19;;;8.95;93.37
32733;BME280;11867;51.198;11.966;2023-03-22T04:46:30;100055.34;;;8.95;93.21
32733;BME280;11867;51.198;11.966;2023-03-22T04:47:33;100056.72;;;8.92;93.23
32733;BME280;11867;51.198;11.966;2023-03-22T04:48:35;100051.53;;;9.01;92.97
32733;BME280;11867;51.198;11.966;2023-03-22T04:49:38;100055.31;;;9.10;92.68
32733;BME280;11867;51.198;11.966;2023-03-22T04:50:39;100054.75;;;9.18;92.28
32733;BME280;11867;51.198;11.966;2023-03-22T04:51:42;100056.72;;;8.97;92.18
32733;BME280;11867;51.198;11.966;2023-03-22T04:52:44;100062.16;;;8.92;93.46
32733;BME280;11867;51.198;11.966;2023-03-22T04:53:48;100050.69;;;9.11;92.71
32733;BME280;11867;51.198;11.966;2023-03-22T04:54:50;100052.25;;;9.27;92.01
32733;BME280;11867;51.198;11.966;2023-03-22T04:55:52;100053.88;;;9.28;91.68
32733;BME280;11867;51.198;11.966;2023-03-22T04:56:57;100048.19;;;9.24;91.83
32733;BME280;11867;51.198;11.966;2023-03-22T04:57:59;100051.41;;;9.32;91.77
32733;BME280;11867;51.198;11.966;2023-03-22T04:59:01;100045.97;;;9.37;91.41
32733;BME280;11867;51.198;11.966;2023-03-22T05:00:06;100057.50;;;9.08;92.31
32733;BME280;11867;51.198;11.966;2023-03-22T05:01:09;100042.06;;;8.88;93.86
32733;BME280;11867;51.198;11.966;2023-03-22T05:02:12;100037.44;;;8.88;94.20
32733;BME280;11867;51.198;11.966;2023-03-22T05:03:14;100044.47;;;9.00;94.20
32733;BME280;11867;51.198;11.966;2023-03-22T05:04:19;100042.34;;;8.86;94.20
32733;BME280;11867;51.198;11.966;2023-03-22T05:05:21;100047.00;;;8.71;95.35
32733;BME280;11867;51.198;11.966;2023-03-22T05:06:23;100045.63;;;8.83;95.45
32733;BME280;11867;51.198;11.966;2023-03-22T05:07:27;100036.63;;;8.93;94.79
32733;BME280;11867;51.198;11.966;2023-03-22T05:08:29;100036.06;;;9.01;94.53
32733;BME280;11867;51.198;11.966;2023-03-22T05:09:32;100032.75;;;9.04;94.25
32733;BME280;11867;51.198;11.966;2023-03-22T05:10:38;100034.94;;;9.07;93.85
32733;BME280;11867;51.198;11.966;2023-03-22T05:11:41;100029.19;;;9.09;93.78
32733;BME280;11867;51.198;11.966;2023-03-22T05:12:43;100029.19;;;9.14;93.98
32733;BME280;11867;51.198;11.966;2023-03-22T05:13:45;100024.25;;;9.21;93.21
32733;BME280;11867;51.198;11.966;2023-03-22T05:14:47;100024.03;;;9.18;93.69
32733;BME280;11867;51.198;11.966;2023-03-22T05:15:51;100022.66;;;9.15;93.55
32733;BME280;11867;51.198;11.966;2023-03-22T05:16:53;100016.13;;;9.11;94.19
32733;BME280;11867;51.198;11.966;2023-03-22T05:17:55;100020.41;;;9.27;93.58
32733;BME280;11867;51.198;11.966;2023-03-22T05:18:57;100018.97;;;9.45;92.98
32733;BME280;11867;51.198;11.966;2023-03-22T05:20:02;100015.44;;;9.45;92.18
32733;BME280;11867;51.198;11.966;2023-03-22T05:21:10;100022.72;;;9.55;91.73
32733;BME280;11867;51.198;11.966;2023-03-22T05:22:14;100017.59;;;9.48;92.37
32733;BME280;11867;51.198;11.966;2023-03-22T05:23:15;100011.41;;;9.32;93.18
32733;BME280;11867;51.198;11.966;2023-03-22T05:24:19;100027.50;;;9.28;93.63
32733;BME280;11867;51.198;11.966;2023-03-22T05:25:21;100018.50;;;9.28;93.51
32733;BME280;11867;51.198;11.966;2023-03-22T05:26:24;100011.75;;;9.20;93.91
32733;BME280;11867;51.198;11.966;2023-03-22T05:27:27;100016.84;;;9.32;94.08
32733;BME280;11867;51.198;11.966;2023-03-22T05:28:35;100009.09;;;9.55;93.28
32733;BME280;11867;51.198;11.966;2023-03-22T05:29:37;100019.19;;;9.54;92.83
32733;BME280;11867;51.198;11.966;2023-03-22T05:30:46;100015.19;;;9.41;93.13
32733;BME280;11867;51.198;11.966;2023-03-22T05:31:49;100005.94;;;9.37;93.76
32733;BME280;11867;51.198;11.966;2023-03-22T05:32:58;100005.31;;;9.56;93.10
32733;BME280;11867;51.198;11.966;2023-03-22T05:34:00;100012.28;;;9.67;92.62
32733;BME280;11867;51.198;11.966;2023-03-22T05:35:04;100009.56;;;9.72;91.54
32733;BME280;11867;51.198;11.966;2023-03-22T05:36:08;100014.31;;;9.90;90.98
32733;BME280;11867;51.198;11.966;2023-03-22T05:37:11;100001.69;;;10.00;90.62
32733;BME280;11867;51.198;11.966;2023-03-22T05:38:13;100020.41;;;10.12;90.60
32733;BME280;11867;51.198;11.966;2023-03-22T05:39:16;100021.63;;;9.95;90.81
32733;BME280;11867;51.198;11.966;2023-03-22T05:40:18;100020.56;;;9.91;90.39
32733;BME280;11867;51.198;11.966;2023-03-22T05:41:20;100023.53;;;9.95;89.61
32733;BME280;11867;51.198;11.966;2023-03-22T05:42:22;100025.34;;;9.70;90.54